Denzil, Canada
Current Conditions -  °F | °C
As of 3:00 PM on Tuesday 21 Oct 2014 (Local Time) from CYKY Reporting Station
Broken Clouds Broken Clouds  
Wind Chill: 63°   Ceiling: 24000
Heat Index: 63°   Visibility: 15mi
Dew Point: 37°   Wind: 5mph
Humidity: 39%   Direction: 310°NW
Pressure: 29.57"   Gusts: NA
Location:  52.23°N, 109.65°W
Report Text: CYKY 212100Z 31004KT 270V330 15SM FEW045 SCT085 BKN240 17/03 A2957 RMK SC2AC2CI3 SLP019 DENSITY ALT 3400FT
Loading
Personal Weather Stations






























Interactive Weather Map New forecast layout! Learn more

10-Day Weather Forecast

Advertisements
Track Severe Weather on mobile